sensor_id;sensor_type;location;lat;lon;timestamp;pressure;altitude;pressure_sealevel;temperature;humidity
6032;BME280;3044;43.232;27.972;2023-11-22T00:01:02;45142.38;;;-143.84;89.60
6032;BME280;3044;43.232;27.972;2023-11-22T00:03:31;45176.66;;;-143.84;89.49
6032;BME280;3044;43.232;27.972;2023-11-22T00:05:58;45153.81;;;-143.84;89.97
6032;BME280;3044;43.232;27.972;2023-11-22T00:08:27;45167.13;;;-143.84;90.43
6032;BME280;3044;43.232;27.972;2023-11-22T00:10:55;45157.59;;;-143.84;91.11
6032;BME280;3044;43.232;27.972;2023-11-22T00:13:22;45169.03;;;-143.84;91.29
6032;BME280;3044;43.232;27.972;2023-11-22T00:15:49;45178.56;;;-143.84;91.59
6032;BME280;3044;43.232;27.972;2023-11-22T00:18:16;45151.91;;;-143.84;91.34
6032;BME280;3044;43.232;27.972;2023-11-22T00:20:45;45174.75;;;-143.84;91.69
6032;BME280;3044;43.232;27.972;2023-11-22T00:23:13;45144.28;;;-143.84;91.43
6032;BME280;3044;43.232;27.972;2023-11-22T00:25:40;45159.50;;;-143.84;92.00
6032;BME280;3044;43.232;27.972;2023-11-22T00:28:07;45163.31;;;-143.84;92.00
6032;BME280;3044;43.232;27.972;2023-11-22T00:30:34;45146.19;;;-143.84;91.80
6032;BME280;3044;43.232;27.972;2023-11-22T00:33:02;45172.84;;;-143.84;91.24
6032;BME280;3044;43.232;27.972;2023-11-22T00:35:30;45186.16;;;-143.84;90.46
6032;BME280;3044;43.232;27.972;2023-11-22T00:37:58;45176.66;;;-143.84;89.90
6032;BME280;3044;43.232;27.972;2023-11-22T00:40:26;45155.69;;;-143.84;89.37
6032;BME280;3044;43.232;27.972;2023-11-22T00:42:53;45161.41;;;-143.84;88.50
6032;BME280;3044;43.232;27.972;2023-11-22T00:45:20;45169.03;;;-143.84;87.80
6032;BME280;3044;43.232;27.972;2023-11-22T00:47:47;45157.59;;;-143.84;86.60
6032;BME280;3044;43.232;27.972;2023-11-22T00:50:15;45159.50;;;-143.84;85.40
6032;BME280;3044;43.232;27.972;2023-11-22T00:52:45;45151.91;;;-143.84;84.39
6032;BME280;3044;43.232;27.972;2023-11-22T00:55:14;45155.69;;;-143.84;83.85
6032;BME280;3044;43.232;27.972;2023-11-22T00:57:41;45146.19;;;-143.84;84.11
6032;BME280;3044;43.232;27.972;2023-11-22T01:00:09;45151.91;;;-143.84;84.01
6032;BME280;3044;43.232;27.972;2023-11-22T01:02:38;45144.28;;;-143.84;84.01
6032;BME280;3044;43.232;27.972;2023-11-22T01:05:06;45140.47;;;-143.84;83.55
6032;BME280;3044;43.232;27.972;2023-11-22T01:07:38;45142.38;;;-143.84;83.57
6032;BME280;3044;43.232;27.972;2023-11-22T01:10:06;45151.91;;;-143.84;83.23
6032;BME280;3044;43.232;27.972;2023-11-22T01:12:35;45155.69;;;-143.84;83.57
6032;BME280;3044;43.232;27.972;2023-11-22T01:15:02;45167.13;;;-143.84;83.49
6032;BME280;3044;43.232;27.972;2023-11-22T01:17:31;45174.75;;;-143.84;83.13
6032;BME280;3044;43.232;27.972;2023-11-22T01:19:58;45170.94;;;-143.84;83.01
6032;BME280;3044;43.232;27.972;2023-11-22T01:22:25;45167.13;;;-143.84;82.87
6032;BME280;3044;43.232;27.972;2023-11-22T01:24:53;45153.81;;;-143.84;82.92
6032;BME280;3044;43.232;27.972;2023-11-22T01:27:20;45170.94;;;-143.84;82.72
6032;BME280;3044;43.232;27.972;2023-11-22T01:29:49;45172.84;;;-143.84;82.39
6032;BME280;3044;43.232;27.972;2023-11-22T01:32:16;45195.69;;;-143.84;82.10
6032;BME280;3044;43.232;27.972;2023-11-22T01:34:44;45136.66;;;-143.84;81.56
6032;BME280;3044;43.232;27.972;2023-11-22T01:37:11;45163.31;;;-143.84;81.68
6032;BME280;3044;43.232;27.972;2023-11-22T01:39:39;45161.41;;;-143.84;80.93
6032;BME280;3044;43.232;27.972;2023-11-22T01:42:07;45150.00;;;-143.84;80.28
6032;BME280;3044;43.232;27.972;2023-11-22T01:44:35;45167.13;;;-143.84;80.29
6032;BME280;3044;43.232;27.972;2023-11-22T01:47:04;45150.00;;;-143.84;80.02
6032;BME280;3044;43.232;27.972;2023-11-22T01:49:31;45174.75;;;-143.84;79.99
6032;BME280;3044;43.232;27.972;2023-11-22T01:51:59;45142.38;;;-143.84;79.77
6032;BME280;3044;43.232;27.972;2023-11-22T01:54:28;45144.28;;;-143.84;79.59
6032;BME280;3044;43.232;27.972;2023-11-22T01:56:56;45167.13;;;-143.84;79.36
6032;BME280;3044;43.232;27.972;2023-11-22T01:59:24;45151.91;;;-143.84;78.96
6032;BME280;3044;43.232;27.972;2023-11-22T02:01:53;45178.56;;;-143.84;79.31
6032;BME280;3044;43.232;27.972;2023-11-22T02:04:22;45148.09;;;-143.84;79.07
6032;BME280;3044;43.232;27.972;2023-11-22T02:06:51;45146.19;;;-143.84;79.11
6032;BME280;3044;43.232;27.972;2023-11-22T02:09:18;45146.19;;;-143.84;79.07
6032;BME280;3044;43.232;27.972;2023-11-22T02:11:45;45161.41;;;-143.84;78.90
6032;BME280;3044;43.232;27.972;2023-11-22T02:14:13;45146.19;;;-143.84;78.52
6032;BME280;3044;43.232;27.972;2023-11-22T02:16:41;45172.84;;;-143.84;78.43
6032;BME280;3044;43.232;27.972;2023-11-22T02:19:14;45170.94;;;-143.84;78.68
6032;BME280;3044;43.232;27.972;2023-11-22T02:21:43;45144.28;;;-143.84;78.52
6032;BME280;3044;43.232;27.972;2023-11-22T02:24:12;45129.03;;;-143.84;78.70
6032;BME280;3044;43.232;27.972;2023-11-22T02:26:43;45176.66;;;-143.84;78.65
6032;BME280;3044;43.232;27.972;2023-11-22T02:29:11;45151.91;;;-143.84;78.95
6032;BME280;3044;43.232;27.972;2023-11-22T02:31:41;45148.09;;;-143.84;79.00
6032;BME280;3044;43.232;27.972;2023-11-22T02:34:08;45163.31;;;-143.84;79.13
6032;BME280;3044;43.232;27.972;2023-11-22T02:36:35;45151.91;;;-143.84;78.55
6032;BME280;3044;43.232;27.972;2023-11-22T02:39:03;45159.50;;;-143.84;78.70
6032;BME280;3044;43.232;27.972;2023-11-22T02:41:31;45172.84;;;-143.84;78.61
6032;BME280;3044;43.232;27.972;2023-11-22T02:44:00;45153.81;;;-143.84;78.64
6032;BME280;3044;43.232;27.972;2023-11-22T02:46:27;45142.38;;;-143.84;78.68
6032;BME280;3044;43.232;27.972;2023-11-22T02:48:54;45140.47;;;-143.84;78.85
6032;BME280;3044;43.232;27.972;2023-11-22T02:51:22;45159.50;;;-143.84;78.58
6032;BME280;3044;43.232;27.972;2023-11-22T02:53:49;45148.09;;;-143.84;78.57
6032;BME280;3044;43.232;27.972;2023-11-22T02:56:16;45138.56;;;-143.84;78.79
6032;BME280;3044;43.232;27.972;2023-11-22T02:58:45;45172.84;;;-143.84;78.50
6032;BME280;3044;43.232;27.972;2023-11-22T03:01:12;45155.69;;;-143.84;78.78
6032;BME280;3044;43.232;27.972;2023-11-22T03:03:39;45165.22;;;-143.84;79.00
6032;BME280;3044;43.232;27.972;2023-11-22T03:06:07;45138.56;;;-143.84;79.16
6032;BME280;3044;43.232;27.972;2023-11-22T03:08:34;45170.94;;;-143.84;78.82
6032;BME280;3044;43.232;27.972;2023-11-22T03:11:01;45153.81;;;-143.84;79.31
6032;BME280;3044;43.232;27.972;2023-11-22T03:13:29;45155.69;;;-143.84;79.20
6032;BME280;3044;43.232;27.972;2023-11-22T03:15:57;45144.28;;;-143.84;79.20
6032;BME280;3044;43.232;27.972;2023-11-22T03:18:25;45165.22;;;-143.84;79.08
6032;BME280;3044;43.232;27.972;2023-11-22T03:20:52;45130.94;;;-143.84;79.21
6032;BME280;3044;43.232;27.972;2023-11-22T03:23:20;45132.84;;;-143.84;79.20
6032;BME280;3044;43.232;27.972;2023-11-22T03:25:47;45167.13;;;-143.84;79.56
6032;BME280;3044;43.232;27.972;2023-11-22T03:28:15;45157.59;;;-143.84;79.33
6032;BME280;3044;43.232;27.972;2023-11-22T03:30:42;45121.44;;;-143.84;79.43
6032;BME280;3044;43.232;27.972;2023-11-22T03:33:10;45159.50;;;-143.84;79.32
6032;BME280;3044;43.232;27.972;2023-11-22T03:35:37;45140.47;;;-143.84;78.94
6032;BME280;3044;43.232;27.972;2023-11-22T03:38:05;45148.09;;;-143.84;78.89
6032;BME280;3044;43.232;27.972;2023-11-22T03:40:33;45161.41;;;-143.84;78.81
6032;BME280;3044;43.232;27.972;2023-11-22T03:43:01;45136.66;;;-143.84;78.66
6032;BME280;3044;43.232;27.972;2023-11-22T03:45:28;45157.59;;;-143.84;78.68
6032;BME280;3044;43.232;27.972;2023-11-22T03:47:55;45146.19;;;-143.84;78.46
6032;BME280;3044;43.232;27.972;2023-11-22T03:50:24;45178.56;;;-143.84;78.42
6032;BME280;3044;43.232;27.972;2023-11-22T03:52:51;45167.13;;;-143.84;78.29
6032;BME280;3044;43.232;27.972;2023-11-22T03:55:18;45157.59;;;-143.84;78.03
6032;BME280;3044;43.232;27.972;2023-11-22T03:57:45;45176.66;;;-143.84;77.71
6032;BME280;3044;43.232;27.972;2023-11-22T04:00:13;45163.31;;;-143.84;77.83
6032;BME280;3044;43.232;27.972;2023-11-22T04:02:40;45157.59;;;-143.84;78.10
6032;BME280;3044;43.232;27.972;2023-11-22T04:05:09;45153.81;;;-143.84;78.75
6032;BME280;3044;43.232;27.972;2023-11-22T04:07:38;45169.03;;;-143.84;78.48
6032;BME280;3044;43.232;27.972;2023-11-22T04:10:06;45142.38;;;-143.84;78.63
6032;BME280;3044;43.232;27.972;2023-11-22T04:12:33;45134.75;;;-143.84;78.72
6032;BME280;3044;43.232;27.972;2023-11-22T04:15:00;45172.84;;;-143.84;78.71
6032;BME280;3044;43.232;27.972;2023-11-22T04:17:27;45150.00;;;-143.84;78.71
6032;BME280;3044;43.232;27.972;2023-11-22T04:19:55;45161.41;;;-143.84;78.96
6032;BME280;3044;43.232;27.972;2023-11-22T04:22:22;45155.69;;;-143.84;78.97
6032;BME280;3044;43.232;27.972;2023-11-22T04:24:50;45167.13;;;-143.84;79.14
6032;BME280;3044;43.232;27.972;2023-11-22T04:27:17;45167.13;;;-143.84;79.07
6032;BME280;3044;43.232;27.972;2023-11-22T04:29:44;45150.00;;;-143.84;79.08
6032;BME280;3044;43.232;27.972;2023-11-22T04:32:12;45174.75;;;-143.84;78.89
6032;BME280;3044;43.232;27.972;2023-11-22T04:34:39;45155.69;;;-143.84;79.12
6032;BME280;3044;43.232;27.972;2023-11-22T04:37:06;45132.84;;;-143.84;78.67
6032;BME280;3044;43.232;27.972;2023-11-22T04:39:33;45136.66;;;-143.84;78.42
6032;BME280;3044;43.232;27.972;2023-11-22T04:42:02;45155.69;;;-143.84;78.27
6032;BME280;3044;43.232;27.972;2023-11-22T04:44:29;45167.13;;;-143.84;78.18
6032;BME280;3044;43.232;27.972;2023-11-22T04:46:57;45150.00;;;-143.84;78.10
6032;BME280;3044;43.232;27.972;2023-11-22T04:49:25;45155.69;;;-143.84;78.26
6032;BME280;3044;43.232;27.972;2023-11-22T04:51:53;45150.00;;;-143.84;78.42
6032;BME280;3044;43.232;27.972;2023-11-22T04:54:20;45144.28;;;-143.84;78.79
6032;BME280;3044;43.232;27.972;2023-11-22T04:56:47;45155.69;;;-143.84;79.71
6032;BME280;3044;43.232;27.972;2023-11-22T04:59:17;45146.19;;;-143.84;80.29
6032;BME280;3044;43.232;27.972;2023-11-22T05:01:44;45148.09;;;-143.84;80.56
6032;BME280;3044;43.232;27.972;2023-11-22T05:04:11;45148.09;;;-143.84;80.66
6032;BME280;3044;43.232;27.972;2023-11-22T05:06:38;45136.66;;;-143.84;80.47
6032;BME280;3044;43.232;27.972;2023-11-22T05:09:05;45186.16;;;-143.84;80.33
6032;BME280;3044;43.232;27.972;2023-11-22T05:11:33;45169.03;;;-143.84;80.29
6032;BME280;3044;43.232;27.972;2023-11-22T05:14:00;45157.59;;;-143.84;80.19
6032;BME280;3044;43.232;27.972;2023-11-22T05:16:28;45153.81;;;-143.84;80.19
6032;BME280;3044;43.232;27.972;2023-11-22T05:18:55;45148.09;;;-143.84;80.00
6032;BME280;3044;43.232;27.972;2023-11-22T05:21:22;45170.94;;;-143.84;80.78
6032;BME280;3044;43.232;27.972;2023-11-22T05:23:50;45151.91;;;-143.84;82.07
6032;BME280;3044;43.232;27.972;2023-11-22T05:26:18;45151.91;;;-143.84;82.69
6032;BME280;3044;43.232;27.972;2023-11-22T05:28:45;45150.00;;;-143.84;83.05
6032;BME280;3044;43.232;27.972;2023-11-22T05:31:13;45150.00;;;-143.84;83.09
6032;BME280;3044;43.232;27.972;2023-11-22T05:33:42;45178.56;;;-143.84;83.18
6032;BME280;3044;43.232;27.972;2023-11-22T05:36:09;45165.22;;;-143.84;83.31
6032;BME280;3044;43.232;27.972;2023-11-22T05:38:37;45151.91;;;-143.84;83.18
6032;BME280;3044;43.232;27.972;2023-11-22T05:41:05;45199.50;;;-143.84;82.79
6032;BME280;3044;43.232;27.972;2023-11-22T05:43:32;45167.13;;;-143.84;83.25
6032;BME280;3044;43.232;27.972;2023-11-22T05:46:02;45146.19;;;-143.84;82.92
6032;BME280;3044;43.232;27.972;2023-11-22T05:48:29;45165.22;;;-143.84;83.36
6032;BME280;3044;43.232;27.972;2023-11-22T05:50:58;45159.50;;;-143.84;83.31
6032;BME280;3044;43.232;27.972;2023-11-22T05:53:25;45155.69;;;-143.84;83.75
6032;BME280;3044;43.232;27.972;2023-11-22T05:55:52;45165.22;;;-143.84;83.98
6032;BME280;3044;43.232;27.972;2023-11-22T05:58:19;45153.81;;;-143.84;85.14
6032;BME280;3044;43.232;27.972;2023-11-22T06:00:47;45148.09;;;-143.84;85.80
6032;BME280;3044;43.232;27.972;2023-11-22T06:03:14;45146.19;;;-143.84;86.12
6032;BME280;3044;43.232;27.972;2023-11-22T06:05:41;45155.69;;;-143.84;86.53
6032;BME280;3044;43.232;27.972;2023-11-22T06:08:10;45188.06;;;-143.84;87.42
6032;BME280;3044;43.232;27.972;2023-11-22T06:10:37;45148.09;;;-143.84;87.71
6032;BME280;3044;43.232;27.972;2023-11-22T06:13:06;45136.66;;;-143.84;88.12
6032;BME280;3044;43.232;27.972;2023-11-22T06:15:34;45163.31;;;-143.84;88.15
6032;BME280;3044;43.232;27.972;2023-11-22T06:18:01;45174.75;;;-143.84;88.58
6032;BME280;3044;43.232;27.972;2023-11-22T06:20:28;45146.19;;;-143.84;88.53
6032;BME280;3044;43.232;27.972;2023-11-22T06:22:56;45155.69;;;-143.84;88.33
6032;BME280;3044;43.232;27.972;2023-11-22T06:25:24;45148.09;;;-143.84;88.39
6032;BME280;3044;43.232;27.972;2023-11-22T06:27:52;45150.00;;;-143.84;88.42
6032;BME280;3044;43.232;27.972;2023-11-22T06:30:20;45127.13;;;-143.84;87.96
6032;BME280;3044;43.232;27.972;2023-11-22T06:32:47;45146.19;;;-143.84;87.93
6032;BME280;3044;43.232;27.972;2023-11-22T06:35:14;45155.69;;;-143.84;87.71
6032;BME280;3044;43.232;27.972;2023-11-22T06:37:43;45157.59;;;-143.84;87.78
6032;BME280;3044;43.232;27.972;2023-11-22T06:40:11;45189.97;;;-143.84;87.82
6032;BME280;3044;43.232;27.972;2023-11-22T06:42:41;45157.59;;;-143.84;87.93
6032;BME280;3044;43.232;27.972;2023-11-22T06:45:08;45170.94;;;-143.84;87.78
6032;BME280;3044;43.232;27.972;2023-11-22T06:47:38;45134.75;;;-143.84;87.54
6032;BME280;3044;43.232;27.972;2023-11-22T06:50:06;45172.84;;;-143.84;87.06
6032;BME280;3044;43.232;27.972;2023-11-22T06:52:35;45134.75;;;-143.84;87.26
6032;BME280;3044;43.232;27.972;2023-11-22T06:55:03;45140.47;;;-143.84;87.11
6032;BME280;3044;43.232;27.972;2023-11-22T06:57:30;45161.41;;;-143.84;86.62
6032;BME280;3044;43.232;27.972;2023-11-22T06:59:59;45144.28;;;-143.84;86.34
6032;BME280;3044;43.232;27.972;2023-11-22T07:02:30;45150.00;;;-143.84;85.81
6032;BME280;3044;43.232;27.972;2023-11-22T07:04:57;45113.81;;;-143.84;85.76
6032;BME280;3044;43.232;27.972;2023-11-22T07:07:25;45130.94;;;-143.84;84.97
6032;BME280;3044;43.232;27.972;2023-11-22T07:09:53;45155.69;;;-143.84;84.43
6032;BME280;3044;43.232;27.972;2023-11-22T07:12:22;45140.47;;;-143.84;83.95
6032;BME280;3044;43.232;27.972;2023-11-22T07:14:49;45155.69;;;-143.84;83.80
6032;BME280;3044;43.232;27.972;2023-11-22T07:17:18;45138.56;;;-143.84;83.60
6032;BME280;3044;43.232;27.972;2023-11-22T07:19:47;45148.09;;;-143.84;83.82
6032;BME280;3044;43.232;27.972;2023-11-22T07:22:14;45125.22;;;-143.84;83.72
6032;BME280;3044;43.232;27.972;2023-11-22T07:24:45;45134.75;;;-143.84;82.19
6032;BME280;3044;43.232;27.972;2023-11-22T07:27:13;45136.66;;;-143.84;80.93
6032;BME280;3044;43.232;27.972;2023-11-22T07:29:40;45140.47;;;-143.84;80.05
6032;BME280;3044;43.232;27.972;2023-11-22T07:32:08;45121.44;;;-143.84;77.51
6032;BME280;3044;43.232;27.972;2023-11-22T07:34:38;45148.09;;;-143.84;76.13
6032;BME280;3044;43.232;27.972;2023-11-22T07:37:06;45129.03;;;-143.84;75.58
6032;BME280;3044;43.232;27.972;2023-11-22T07:39:34;45127.13;;;-143.84;75.00
6032;BME280;3044;43.232;27.972;2023-11-22T07:42:02;45136.66;;;-143.84;74.75
6032;BME280;3044;43.232;27.972;2023-11-22T07:44:30;45119.53;;;-143.84;73.71
6032;BME280;3044;43.232;27.972;2023-11-22T07:46:58;45108.09;;;-143.84;73.05
6032;BME280;3044;43.232;27.972;2023-11-22T07:49:26;45100.47;;;-143.84;71.67
6032;BME280;3044;43.232;27.972;2023-11-22T07:51:56;45108.09;;;-143.84;68.63
6032;BME280;3044;43.232;27.972;2023-11-22T07:54:23;45140.47;;;-143.84;66.62
6032;BME280;3044;43.232;27.972;2023-11-22T07:56:50;45115.72;;;-143.84;66.75
6032;BME280;3044;43.232;27.972;2023-11-22T07:59:18;45123.34;;;-143.84;65.06
6032;BME280;3044;43.232;27.972;2023-11-22T08:01:46;45111.91;;;-143.84;63.96
6032;BME280;3044;43.232;27.972;2023-11-22T08:04:14;45106.19;;;-143.84;62.69
6032;BME280;3044;43.232;27.972;2023-11-22T08:06:42;45089.06;;;-143.84;61.49
6032;BME280;3044;43.232;27.972;2023-11-22T08:09:11;45096.66;;;-143.84;59.91
6032;BME280;3044;43.232;27.972;2023-11-22T08:11:39;45119.53;;;-143.84;59.64
6032;BME280;3044;43.232;27.972;2023-11-22T08:14:06;45098.56;;;-143.84;57.99
6032;BME280;3044;43.232;27.972;2023-11-22T08:16:34;45071.91;;;-143.84;57.64
6032;BME280;3044;43.232;27.972;2023-11-22T08:19:04;45169.03;;;-143.84;56.31
6032;BME280;3044;43.232;27.972;2023-11-22T08:21:33;45106.19;;;-143.84;56.94
6032;BME280;3044;43.232;27.972;2023-11-22T08:24:00;45098.56;;;-143.84;56.58
6032;BME280;3044;43.232;27.972;2023-11-22T08:26:30;45115.72;;;-143.84;57.11
6032;BME280;3044;43.232;27.972;2023-11-22T08:28:57;45085.25;;;-143.84;56.11
6032;BME280;3044;43.232;27.972;2023-11-22T08:31:24;45094.78;;;-143.84;56.73
6032;BME280;3044;43.232;27.972;2023-11-22T08:33:52;45102.38;;;-143.84;56.65
6032;BME280;3044;43.232;27.972;2023-11-22T08:36:19;45094.78;;;-143.84;56.93
6032;BME280;3044;43.232;27.972;2023-11-22T08:38:46;45100.47;;;-143.84;57.42
6032;BME280;3044;43.232;27.972;2023-11-22T08:41:13;45089.06;;;-143.84;56.10
6032;BME280;3044;43.232;27.972;2023-11-22T08:43:42;45096.66;;;-143.84;56.18
6032;BME280;3044;43.232;27.972;2023-11-22T08:46:13;45092.88;;;-143.84;55.96
6032;BME280;3044;43.232;27.972;2023-11-22T08:48:41;45079.53;;;-143.84;56.52
6032;BME280;3044;43.232;27.972;2023-11-22T08:51:08;45090.97;;;-143.84;55.80
6032;BME280;3044;43.232;27.972;2023-11-22T08:53:37;45096.66;;;-143.84;55.77
6032;BME280;3044;43.232;27.972;2023-11-22T08:56:05;45087.16;;;-143.84;55.56
6032;BME280;3044;43.232;27.972;2023-11-22T08:58:34;45104.28;;;-143.84;54.14
6032;BME280;3044;43.232;27.972;2023-11-22T09:01:03;45115.72;;;-143.84;55.43
6032;BME280;3044;43.232;27.972;2023-11-22T09:03:30;45108.09;;;-143.84;56.57
6032;BME280;3044;43.232;27.972;2023-11-22T09:05:58;45102.38;;;-143.84;56.65
6032;BME280;3044;43.232;27.972;2023-11-22T09:08:25;45113.81;;;-143.84;55.69
6032;BME280;3044;43.232;27.972;2023-11-22T09:10:53;45100.47;;;-143.84;55.14
6032;BME280;3044;43.232;27.972;2023-11-22T09:13:20;45098.56;;;-143.84;55.20
6032;BME280;3044;43.232;27.972;2023-11-22T09:15:48;45073.81;;;-143.84;55.12
6032;BME280;3044;43.232;27.972;2023-11-22T09:18:16;45087.16;;;-143.84;56.09
6032;BME280;3044;43.232;27.972;2023-11-22T09:20:44;45110.00;;;-143.84;56.60
6032;BME280;3044;43.232;27.972;2023-11-22T09:23:11;45106.19;;;-143.84;56.88
6032;BME280;3044;43.232;27.972;2023-11-22T09:25:40;45100.47;;;-143.84;56.77
6032;BME280;3044;43.232;27.972;2023-11-22T09:28:07;45102.38;;;-143.84;56.73
6032;BME280;3044;43.232;27.972;2023-11-22T09:30:34;45090.97;;;-143.84;56.34
6032;BME280;3044;43.232;27.972;2023-11-22T09:33:05;45108.09;;;-143.84;57.66
6032;BME280;3044;43.232;27.972;2023-11-22T09:35:35;45113.81;;;-143.84;58.53
6032;BME280;3044;43.232;27.972;2023-11-22T09:38:03;45102.38;;;-143.84;59.53
6032;BME280;3044;43.232;27.972;2023-11-22T09:40:32;45110.00;;;-143.84;60.17
6032;BME280;3044;43.232;27.972;2023-11-22T09:43:02;45121.44;;;-143.84;60.76
6032;BME280;3044;43.232;27.972;2023-11-22T09:45:29;45108.09;;;-143.84;61.83
6032;BME280;3044;43.232;27.972;2023-11-22T09:47:58;45115.72;;;-143.84;63.46
6032;BME280;3044;43.232;27.972;2023-11-22T09:50:35;45098.56;;;-143.84;64.70
6032;BME280;3044;43.232;27.972;2023-11-22T09:53:09;45110.00;;;-143.84;64.10
6032;BME280;3044;43.232;27.972;2023-11-22T10:35:31;45117.63;;;-143.84;69.99
6032;BME280;3044;43.232;27.972;2023-11-22T10:37:59;45115.72;;;-143.84;70.31
6032;BME280;3044;43.232;27.972;2023-11-22T10:40:29;45125.22;;;-143.84;70.88
6032;BME280;3044;43.232;27.972;2023-11-22T10:42:56;45106.19;;;-143.84;71.25
6032;BME280;3044;43.232;27.972;2023-11-22T10:45:25;45132.84;;;-143.84;72.13
6032;BME280;3044;43.232;27.972;2023-11-22T10:47:56;45111.91;;;-143.84;72.31
6032;BME280;3044;43.232;27.972;2023-11-22T10:50:23;45129.03;;;-143.84;71.88
6032;BME280;3044;43.232;27.972;2023-11-22T10:52:54;45140.47;;;-143.84;71.88
6032;BME280;3044;43.232;27.972;2023-11-22T10:55:27;45121.44;;;-143.84;71.85
6032;BME280;3044;43.232;27.972;2023-11-22T10:57:56;45113.81;;;-143.84;72.50
6032;BME280;3044;43.232;27.972;2023-11-22T11:00:29;45129.03;;;-143.84;73.03
6032;BME280;3044;43.232;27.972;2023-11-22T11:02:59;45130.94;;;-143.84;73.62
6032;BME280;3044;43.232;27.972;2023-11-22T11:05:30;45144.28;;;-143.84;73.81
6032;BME280;3044;43.232;27.972;2023-11-22T11:08:01;45113.81;;;-143.84;73.81
6032;BME280;3044;43.232;27.972;2023-11-22T11:10:32;45140.47;;;-143.84;74.08
6032;BME280;3044;43.232;27.972;2023-11-22T11:13:00;45132.84;;;-143.84;74.47
6032;BME280;3044;43.232;27.972;2023-11-22T11:15:28;45132.84;;;-143.84;74.92
6032;BME280;3044;43.232;27.972;2023-11-22T11:17:56;45142.38;;;-143.84;75.34
6032;BME280;3044;43.232;27.972;2023-11-22T11:20:24;45138.56;;;-143.84;76.22
6032;BME280;3044;43.232;27.972;2023-11-22T11:22:52;45119.53;;;-143.84;76.37
6032;BME280;3044;43.232;27.972;2023-11-22T11:25:22;45119.53;;;-143.84;76.50
6032;BME280;3044;43.232;27.972;2023-11-22T11:27:56;45125.22;;;-143.84;76.75
6032;BME280;3044;43.232;27.972;2023-11-22T11:30:43;45130.94;;;-143.84;76.86
6032;BME280;3044;43.232;27.972;2023-11-22T11:33:12;45123.34;;;-143.84;77.29
6032;BME280;3044;43.232;27.972;2023-11-22T11:35:43;45130.94;;;-143.84;77.91
6032;BME280;3044;43.232;27.972;2023-11-22T11:38:13;45138.56;;;-143.84;78.00
6032;BME280;3044;43.232;27.972;2023-11-22T11:40:42;45142.38;;;-143.84;78.07
6032;BME280;3044;43.232;27.972;2023-11-22T11:43:10;45142.38;;;-143.84;78.30
6032;BME280;3044;43.232;27.972;2023-11-22T11:45:39;45125.22;;;-143.84;78.51
6032;BME280;3044;43.232;27.972;2023-11-22T11:48:12;45163.31;;;-143.84;78.34
6032;BME280;3044;43.232;27.972;2023-11-22T11:50:39;45148.09;;;-143.84;78.41
6032;BME280;3044;43.232;27.972;2023-11-22T11:53:07;45150.00;;;-143.84;78.27
6032;BME280;3044;43.232;27.972;2023-11-22T11:55:34;45115.72;;;-143.84;77.81
6032;BME280;3044;43.232;27.972;2023-11-22T11:58:06;45148.09;;;-143.84;78.14
6032;BME280;3044;43.232;27.972;2023-11-22T12:00:36;45150.00;;;-143.84;78.54
6032;BME280;3044;43.232;27.972;2023-11-22T12:03:06;45153.81;;;-143.84;78.85
6032;BME280;3044;43.232;27.972;2023-11-22T12:05:35;45136.66;;;-143.84;79.38
6032;BME280;3044;43.232;27.972;2023-11-22T12:08:03;45155.69;;;-143.84;79.17
6032;BME280;3044;43.232;27.972;2023-11-22T12:10:30;45151.91;;;-143.84;79.71
6032;BME280;3044;43.232;27.972;2023-11-22T12:12:57;45142.38;;;-143.84;80.65
6032;BME280;3044;43.232;27.972;2023-11-22T12:15:27;45148.09;;;-143.84;80.79
6032;BME280;3044;43.232;27.972;2023-11-22T12:17:55;45111.91;;;-143.84;81.13
6032;BME280;3044;43.232;27.972;2023-11-22T12:20:24;45134.75;;;-143.84;81.37
6032;BME280;3044;43.232;27.972;2023-11-22T12:22:52;45178.56;;;-143.84;81.32
6032;BME280;3044;43.232;27.972;2023-11-22T12:25:20;45150.00;;;-143.84;81.47
6032;BME280;3044;43.232;27.972;2023-11-22T12:27:48;45163.31;;;-143.84;81.47
6032;BME280;3044;43.232;27.972;2023-11-22T12:30:31;45148.09;;;-143.84;82.31
6032;BME280;3044;43.232;27.972;2023-11-22T12:33:02;45159.50;;;-143.84;83.27
6032;BME280;3044;43.232;27.972;2023-11-22T12:35:31;45123.34;;;-143.84;84.09
6032;BME280;3044;43.232;27.972;2023-11-22T12:37:59;45144.28;;;-143.84;84.60
6032;BME280;3044;43.232;27.972;2023-11-22T12:40:28;45140.47;;;-143.84;85.13
6032;BME280;3044;43.232;27.972;2023-11-22T12:42:59;45167.13;;;-143.84;85.99
6032;BME280;3044;43.232;27.972;2023-11-22T12:45:29;45148.09;;;-143.84;85.87
6032;BME280;3044;43.232;27.972;2023-11-22T12:48:20;45170.94;;;-143.84;86.73
6032;BME280;3044;43.232;27.972;2023-11-22T12:50:49;45150.00;;;-143.84;87.30
6032;BME280;3044;43.232;27.972;2023-11-22T12:53:17;45138.56;;;-143.84;87.83
6032;BME280;3044;43.232;27.972;2023-11-22T12:55:48;45157.59;;;-143.84;88.45
6032;BME280;3044;43.232;27.972;2023-11-22T12:58:15;45165.22;;;-143.84;87.79
6032;BME280;3044;43.232;27.972;2023-11-22T13:00:46;45138.56;;;-143.84;88.62
6032;BME280;3044;43.232;27.972;2023-11-22T13:03:14;45155.69;;;-143.84;88.50
6032;BME280;3044;43.232;27.972;2023-11-22T13:05:42;45148.09;;;-143.84;88.70
6032;BME280;3044;43.232;27.972;2023-11-22T13:08:11;45146.19;;;-143.84;89.01
6032;BME280;3044;43.232;27.972;2023-11-22T13:10:39;45146.19;;;-143.84;89.01
6032;BME280;3044;43.232;27.972;2023-11-22T13:13:06;45155.69;;;-143.84;89.29
6032;BME280;3044;43.232;27.972;2023-11-22T13:15:35;45178.56;;;-143.84;89.50
6032;BME280;3044;43.232;27.972;2023-11-22T13:18:04;45178.56;;;-143.84;89.83
6032;BME280;3044;43.232;27.972;2023-11-22T13:20:32;45142.38;;;-143.84;89.95
6032;BME280;3044;43.232;27.972;2023-11-22T13:22:59;45163.31;;;-143.84;90.01
6032;BME280;3044;43.232;27.972;2023-11-22T13:25:28;45148.09;;;-143.84;90.16
6032;BME280;3044;43.232;27.972;2023-11-22T13:27:55;45165.22;;;-143.84;90.55
6032;BME280;3044;43.232;27.972;2023-11-22T13:30:25;45167.13;;;-143.84;90.93
6032;BME280;3044;43.232;27.972;2023-11-22T13:32:52;45153.81;;;-143.84;91.19
6032;BME280;3044;43.232;27.972;2023-11-22T13:35:23;45151.91;;;-143.84;90.95